createdAt,value
2024-05-09T00:01:52.269Z,96265.34
2024-05-09T00:07:51.949Z,96257.97
2024-05-09T00:10:28.594Z,96250.59
2024-05-09T00:13:03.349Z,96250.41
2024-05-09T00:15:34.075Z,96254.47
2024-05-09T00:18:05.347Z,96251.81
2024-05-09T00:20:39.630Z,96249.97
2024-05-09T00:23:14.316Z,96246.06
2024-05-09T00:25:45.869Z,96247.13
2024-05-09T00:28:16.214Z,96233.00
2024-05-09T00:30:46.260Z,96233.41
2024-05-09T00:33:16.492Z,96202.28
2024-05-09T00:35:46.712Z,96212.91
2024-05-09T00:38:19.384Z,96231.56
2024-05-09T00:40:49.418Z,96230.94
2024-05-09T00:43:19.395Z,96232.78
2024-05-09T00:45:49.960Z,96236.88
2024-05-09T00:48:21.584Z,96224.78
2024-05-09T00:50:54.235Z,96240.13
2024-05-09T00:53:27.981Z,96237.06
2024-05-09T00:55:59.328Z,96232.97
2024-05-09T00:58:32.357Z,96226.22
2024-05-09T01:01:04.517Z,96228.47
2024-05-09T01:03:34.693Z,96225.81
2024-05-09T01:06:04.954Z,96221.28
2024-05-09T01:08:37.774Z,96230.53
2024-05-09T01:11:08.134Z,96220.50
2024-05-09T01:13:38.139Z,96218.00
2024-05-09T01:16:08.845Z,96223.75
2024-05-09T01:18:38.960Z,96227.44
2024-05-09T01:21:10.233Z,96229.06
2024-05-09T01:23:42.892Z,96209.03
2024-05-09T01:26:13.100Z,96233.97
2024-05-09T01:28:43.217Z,96231.94
2024-05-09T01:31:15.933Z,96232.16
2024-05-09T01:33:46.323Z,96232.56
2024-05-09T01:36:16.436Z,96232.97
2024-05-09T01:38:49.131Z,96218.63
2024-05-09T01:41:19.188Z,96223.59
2024-05-09T01:43:49.186Z,96228.28
2024-05-09T01:46:19.994Z,96229.69
2024-05-09T01:48:50.239Z,96230.13
2024-05-09T01:51:20.398Z,96223.13
2024-05-09T01:53:53.226Z,96216.38
2024-05-09T01:56:23.553Z,96225.84
2024-05-09T01:58:53.538Z,96236.03
2024-05-09T02:01:23.568Z,96227.44
2024-05-09T02:03:54.008Z,96240.34
2024-05-09T02:06:24.266Z,96234.81
2024-05-09T02:08:56.915Z,96211.88
2024-05-09T02:11:27.003Z,96235.66
2024-05-09T02:13:57.111Z,96231.16
2024-05-09T02:16:27.086Z,96232.16
2024-05-09T02:18:57.086Z,96236.66
2024-05-09T02:21:27.302Z,96168.34
2024-05-09T02:23:59.863Z,96212.91
2024-05-09T02:26:29.834Z,96227.03
2024-05-09T02:28:59.826Z,96227.88
2024-05-09T02:31:29.840Z,96227.88
2024-05-09T02:33:59.918Z,96222.53
2024-05-09T02:36:29.878Z,96226.00
2024-05-09T02:38:59.839Z,96216.16
2024-05-09T02:41:29.847Z,96230.09
2024-05-09T02:43:57.292Z,96212.31
2024-05-09T02:46:27.002Z,96226.00
2024-05-09T02:48:54.431Z,96225.22
2024-05-09T02:51:24.578Z,96214.16
2024-05-09T02:53:51.897Z,96231.94
2024-05-09T02:56:24.290Z,96231.31
2024-05-09T02:58:51.661Z,96231.94
2024-05-09T03:01:21.406Z,96224.97
2024-05-09T03:03:50.841Z,96221.06
2024-05-09T03:06:20.946Z,96222.28
2024-05-09T03:08:48.696Z,96203.88
2024-05-09T03:11:28.246Z,96226.19
2024-05-09T03:13:55.787Z,96224.97
2024-05-09T03:16:25.813Z,96222.69
2024-05-09T03:18:54.640Z,96225.38
2024-05-09T03:21:25.358Z,96222.50
2024-05-09T03:23:52.746Z,96219.25
2024-05-09T03:26:23.904Z,96222.53
2024-05-09T03:28:53.995Z,96228.47
2024-05-09T03:31:23.933Z,96220.06
2024-05-09T03:33:51.505Z,96227.63
2024-05-09T03:36:21.530Z,96225.59
2024-05-09T03:38:52.314Z,96223.13
2024-05-09T03:41:22.600Z,96221.75
2024-05-09T03:43:52.784Z,96220.91
2024-05-09T03:46:25.359Z,96220.28
2024-05-09T03:48:52.823Z,96198.81
2024-05-09T03:51:22.793Z,96217.41
2024-05-09T03:53:50.121Z,96216.59
2024-05-09T03:56:20.118Z,96222.97
2024-05-09T03:58:47.535Z,96223.13
2024-05-09T04:01:17.259Z,96225.41
2024-05-09T04:03:47.362Z,96222.34
2024-05-09T04:09:37.971Z,96234.03
2024-05-09T04:12:08.094Z,96229.50
2024-05-09T04:14:38.138Z,96232.56
2024-05-09T04:17:05.898Z,96232.72
2024-05-09T04:19:38.551Z,96199.44
2024-05-09T04:22:08.555Z,96217.63
2024-05-09T04:24:35.896Z,96220.69
2024-05-09T04:27:05.529Z,96244.25
2024-05-09T04:29:32.937Z,96245.06
2024-05-09T04:32:03.050Z,96233.38
2024-05-09T04:34:30.473Z,96248.97
2024-05-09T04:37:03.112Z,96249.34
2024-05-09T04:39:30.732Z,96255.50
2024-05-09T04:42:00.637Z,96231.56
2024-05-09T04:44:28.113Z,96242.81
2024-05-09T04:46:58.238Z,96236.66
2024-05-09T04:49:25.653Z,96255.50
2024-05-09T04:51:55.982Z,96255.91
2024-05-09T04:54:33.992Z,96268.63
2024-05-09T04:57:06.503Z,96272.91
2024-05-09T04:59:33.959Z,96278.63
2024-05-09T05:02:03.721Z,96271.44
2024-05-09T05:04:31.473Z,96269.41
2024-05-09T05:07:02.815Z,96267.78
2024-05-09T05:09:33.071Z,96268.19
2024-05-09T05:12:23.202Z,96271.88
2024-05-09T05:14:50.591Z,96264.47
2024-05-09T05:17:20.660Z,96272.47
2024-05-09T05:19:48.304Z,96254.63
2024-05-09T05:22:18.339Z,96253.59
2024-05-09T05:24:48.255Z,96268.94
2024-05-09T05:27:18.181Z,96277.56
2024-05-09T05:29:45.560Z,96239.09
2024-05-09T05:32:15.784Z,96270.19
2024-05-09T05:34:43.210Z,96272.44
2024-05-09T05:37:13.151Z,96274.47
2024-05-09T05:39:40.516Z,96286.38
2024-05-09T05:42:13.040Z,96283.03
2024-05-09T05:44:40.402Z,96283.03
2024-05-09T05:47:10.271Z,96284.44
2024-05-09T05:49:37.844Z,96261.34
2024-05-09T05:52:08.473Z,96285.50
2024-05-09T05:54:35.804Z,96256.22
2024-05-09T05:57:05.845Z,96282.97
2024-05-09T05:59:35.929Z,96274.31
2024-05-09T06:02:06.225Z,96272.72
2024-05-09T06:04:33.570Z,96270.88
2024-05-09T06:07:03.524Z,96277.19
2024-05-09T06:09:31.160Z,96282.53
2024-05-09T06:12:01.502Z,96282.84
2024-05-09T06:14:28.996Z,96280.78
2024-05-09T06:17:01.378Z,96278.47
2024-05-09T06:19:28.971Z,96251.69
2024-05-09T06:21:58.965Z,96258.72
2024-05-09T06:24:26.303Z,96277.06
2024-05-09T06:26:56.031Z,96272.72
2024-05-09T06:29:23.425Z,96272.53
2024-05-09T06:31:54.412Z,96277.81
2024-05-09T06:34:25.423Z,96278.84
2024-05-09T06:36:55.427Z,96260.56
2024-05-09T06:39:23.384Z,96280.00
2024-05-09T06:41:53.468Z,96281.81
2024-05-09T06:44:20.843Z,96282.28
2024-05-09T06:46:50.820Z,96281.28
2024-05-09T06:49:18.357Z,96252.59
2024-05-09T06:51:51.141Z,96270.97
2024-05-09T06:54:18.463Z,96297.47
2024-05-09T06:56:48.099Z,96296.56
2024-05-09T06:59:15.517Z,96292.56
2024-05-09T07:01:45.551Z,96293.84
2024-05-09T07:04:13.112Z,96292.75
2024-05-09T07:06:43.227Z,96275.25
2024-05-09T07:09:13.364Z,96289.03
2024-05-09T07:11:43.442Z,96275.41
2024-05-09T07:14:10.892Z,96295.16
2024-05-09T07:16:40.834Z,96270.34
2024-05-09T07:19:08.578Z,96295.34
2024-05-09T07:21:38.712Z,96299.63
2024-05-09T07:24:06.419Z,96290.59
2024-05-09T07:26:39.128Z,96288.78
2024-05-09T07:29:06.516Z,96287.56
2024-05-09T07:31:36.189Z,96285.88
2024-05-09T07:34:03.756Z,96293.44
2024-05-09T07:36:33.842Z,96292.19
2024-05-09T07:39:01.227Z,96297.59
2024-05-09T07:41:30.950Z,96289.81
2024-05-09T07:44:01.105Z,96273.84
2024-05-09T07:47:37.086Z,96286.78
2024-05-09T07:53:20.909Z,96267.09
2024-05-09T07:54:39.018Z,96253.50
2024-05-09T07:57:09.194Z,96270.94
2024-05-09T07:59:39.881Z,96275.53
2024-05-09T08:02:10.215Z,96274.00
2024-05-09T08:04:37.815Z,96283.50
2024-05-09T08:07:08.264Z,96273.13
2024-05-09T08:09:38.412Z,96281.56
2024-05-09T08:12:09.329Z,96275.25
2024-05-09T08:14:39.466Z,96271.16
2024-05-09T08:17:10.736Z,96280.44
2024-05-09T08:19:38.513Z,96275.81
2024-05-09T08:22:09.409Z,96284.16
2024-05-09T08:24:36.821Z,96280.63
2024-05-09T08:27:07.133Z,96280.44
2024-05-09T08:29:34.520Z,96272.56
2024-05-09T08:32:08.187Z,96274.69
2024-05-09T08:34:35.591Z,96279.09
2024-05-09T08:37:13.006Z,96273.69
2024-05-09T08:39:46.758Z,96274.28
2024-05-09T08:42:19.933Z,96278.56
2024-05-09T08:44:49.755Z,96277.34
2024-05-09T08:47:22.749Z,96277.81
2024-05-09T08:49:58.207Z,96275.72
2024-05-09T08:52:28.372Z,96274.59
2024-05-09T08:54:56.025Z,96271.59
2024-05-09T08:57:26.168Z,96267.38
2024-05-09T08:59:54.388Z,96269.41
2024-05-09T09:02:28.738Z,96266.97
2024-05-09T09:05:01.204Z,96269.97
2024-05-09T09:07:33.546Z,96263.31
2024-05-09T09:10:03.232Z,96271.97
2024-05-09T09:12:34.150Z,96264.88
2024-05-09T09:15:01.623Z,96258.78
2024-05-09T09:17:34.245Z,96267.03
2024-05-09T09:20:01.730Z,96270.63
2024-05-09T09:22:31.798Z,96266.97
2024-05-09T09:24:59.183Z,96266.53
2024-05-09T09:27:30.205Z,96258.41
2024-05-09T09:29:57.579Z,96264.31
2024-05-09T09:32:33.473Z,96264.34
2024-05-09T09:35:01.004Z,96269.59
2024-05-09T09:37:33.129Z,96275.66
2024-05-09T09:40:00.746Z,96261.53
2024-05-09T09:42:34.394Z,96267.13
2024-05-09T09:45:05.547Z,96267.97
2024-05-09T09:47:40.640Z,96272.97
2024-05-09T09:50:14.299Z,96267.91
2024-05-09T09:52:47.935Z,96271.31
2024-05-09T09:55:15.969Z,96266.38
2024-05-09T09:57:47.799Z,96274.97
2024-05-09T10:00:24.073Z,96280.00
2024-05-09T10:03:00.276Z,96265.63
2024-05-09T10:05:28.665Z,96259.94
2024-05-09T10:08:00.437Z,96258.75
2024-05-09T10:10:32.395Z,96255.03
2024-05-09T10:13:03.511Z,96257.94
2024-05-09T10:15:42.766Z,96263.25
2024-05-09T10:18:15.716Z,96256.91
2024-05-09T10:20:44.074Z,96256.91
2024-05-09T10:23:27.820Z,96249.13
2024-05-09T10:25:56.454Z,96255.31
2024-05-09T10:28:29.242Z,96257.53
2024-05-09T10:31:04.006Z,96242.88
2024-05-09T10:33:48.915Z,96252.25
2024-05-09T10:36:20.772Z,96254.06
2024-05-09T10:38:53.540Z,96255.41
2024-05-09T10:41:22.526Z,96266.31
2024-05-09T10:43:54.235Z,96259.69
2024-05-09T10:46:21.724Z,96262.53
2024-05-09T10:48:54.632Z,96266.50
2024-05-09T10:51:22.518Z,96263.06
2024-05-09T10:53:52.592Z,96260.09
2024-05-09T10:56:19.982Z,96262.19
2024-05-09T10:58:49.976Z,96255.31
2024-05-09T11:01:17.547Z,96266.97
2024-05-09T11:03:50.701Z,96256.66
2024-05-09T11:06:21.190Z,96261.22
2024-05-09T11:08:51.761Z,96251.19
2024-05-09T11:11:19.427Z,96254.34
2024-05-09T11:13:49.380Z,96251.81
2024-05-09T11:16:19.704Z,96244.13
2024-05-09T11:18:58.104Z,96250.22
2024-05-09T11:21:28.598Z,96250.44
2024-05-09T11:23:58.703Z,96238.41
2024-05-09T11:26:29.275Z,96242.59
2024-05-09T11:28:59.183Z,96234.81
2024-05-09T11:31:26.793Z,96245.44
2024-05-09T11:33:57.688Z,96238.19
2024-05-09T11:36:27.801Z,96239.53
2024-05-09T11:38:57.829Z,96243.44
2024-05-09T11:41:27.134Z,96240.75
2024-05-09T11:43:57.876Z,96241.41
2024-05-09T11:46:25.594Z,96238.09
2024-05-09T11:48:55.688Z,96240.00
2024-05-09T11:51:23.211Z,96237.75
2024-05-09T11:53:55.883Z,96238.44
2024-05-09T11:56:23.325Z,96242.28
2024-05-09T11:58:53.353Z,96240.66
2024-05-09T12:01:21.345Z,96239.13
2024-05-09T12:03:54.190Z,96230.16
2024-05-09T12:06:21.904Z,96232.28
2024-05-09T12:08:52.294Z,96227.00
2024-05-09T12:11:22.433Z,96222.66
2024-05-09T12:13:52.486Z,96224.13
2024-05-09T12:16:20.275Z,96220.91
2024-05-09T12:18:50.378Z,96223.38
2024-05-09T12:21:17.913Z,96226.00
2024-05-09T12:23:47.796Z,96212.91
2024-05-09T12:26:15.865Z,96212.75
2024-05-09T12:28:48.632Z,96209.69
2024-05-09T12:31:15.957Z,96206.66
2024-05-09T12:33:46.095Z,96213.75
2024-05-09T12:36:13.617Z,96211.09
2024-05-09T12:38:43.660Z,96208.00
2024-05-09T12:41:13.595Z,96206.78
2024-05-09T12:43:40.890Z,96203.34
2024-05-09T12:46:13.647Z,96199.91
2024-05-09T12:48:43.895Z,96208.41
2024-05-09T12:51:11.222Z,96202.66
2024-05-09T12:53:41.931Z,96200.69
2024-05-09T12:56:09.626Z,96196.66
2024-05-09T12:58:39.835Z,96195.38
2024-05-09T13:01:09.773Z,96194.66
2024-05-09T13:03:39.970Z,96177.66
2024-05-09T13:06:10.136Z,96178.78
2024-05-09T13:08:39.274Z,96183.88
2024-05-09T13:11:09.263Z,96182.22
2024-05-09T13:13:36.629Z,96183.69
2024-05-09T13:16:07.020Z,96181.09
2024-05-09T13:18:36.423Z,96177.63
2024-05-09T13:21:09.233Z,96178.59
2024-05-09T13:23:37.864Z,96161.94
2024-05-09T13:26:08.178Z,96164.22
2024-05-09T13:28:35.598Z,96146.38
2024-05-09T13:31:05.554Z,96154.47
2024-05-09T13:33:33.787Z,96150.16
2024-05-09T13:36:03.836Z,96148.22
2024-05-09T13:38:33.786Z,96154.00
2024-05-09T13:41:03.713Z,96152.66
2024-05-09T13:43:31.129Z,96146.88
2024-05-09T13:46:01.187Z,96146.50
2024-05-09T13:48:28.591Z,96136.91
2024-05-09T13:50:58.857Z,96143.81
2024-05-09T13:53:26.182Z,96144.19
2024-05-09T13:55:58.828Z,96127.09
2024-05-09T13:58:26.310Z,96138.06
2024-05-09T14:00:56.393Z,96143.53
2024-05-09T14:03:24.588Z,96131.81
2024-05-09T14:05:55.052Z,96131.53
2024-05-09T14:08:23.245Z,96128.53
2024-05-09T14:10:54.244Z,96127.72
2024-05-09T14:13:24.428Z,96119.81
2024-05-09T14:15:54.468Z,96111.88
2024-05-09T14:18:22.548Z,96119.47
2024-05-09T14:20:52.605Z,96108.25
2024-05-09T14:23:19.977Z,96121.31
2024-05-09T14:25:52.875Z,96116.66
2024-05-09T14:28:21.148Z,96108.19
2024-05-09T14:30:56.580Z,96108.78
2024-05-09T14:33:26.953Z,96110.00
2024-05-09T14:35:57.318Z,96102.28
2024-05-09T14:38:25.246Z,96108.25
2024-05-09T14:40:55.454Z,96104.44
2024-05-09T14:43:23.472Z,96100.34
2024-05-09T14:45:56.355Z,96101.00
2024-05-09T14:48:23.935Z,96098.88
2024-05-09T14:50:53.946Z,96092.97
2024-05-09T14:53:23.563Z,96097.16
2024-05-09T14:55:53.670Z,96094.06
2024-05-09T14:58:21.130Z,96095.53
2024-05-09T15:00:51.993Z,96091.50
2024-05-09T15:03:22.973Z,96097.28
2024-05-09T15:05:53.691Z,96097.78
2024-05-09T15:08:21.647Z,96098.69
2024-05-09T15:10:52.103Z,96093.13
2024-05-09T15:13:20.097Z,96093.19
2024-05-09T15:15:50.422Z,96088.56
2024-05-09T15:18:18.275Z,96080.38
2024-05-09T15:20:51.148Z,96084.50
2024-05-09T15:23:18.503Z,96086.09
2024-05-09T15:25:48.478Z,96083.78
2024-05-09T15:28:16.040Z,96081.31
2024-05-09T15:30:47.362Z,96076.50
2024-05-09T15:33:15.471Z,96072.84
2024-05-09T15:35:46.687Z,96069.00
2024-05-09T15:38:18.263Z,96064.75
2024-05-09T15:40:48.676Z,96068.88
2024-05-09T15:43:16.152Z,96070.31
2024-05-09T15:45:46.123Z,96064.09
2024-05-09T15:48:14.400Z,96061.19
2024-05-09T15:50:44.893Z,96057.72
2024-05-09T15:53:13.363Z,96059.63
2024-05-09T15:55:46.258Z,96052.34
2024-05-09T15:58:14.623Z,96058.28
2024-05-09T16:00:47.785Z,96054.50
2024-05-09T16:03:16.941Z,96062.34
2024-05-09T16:05:48.187Z,96058.19
2024-05-09T16:08:16.708Z,96058.69
2024-05-09T16:10:50.156Z,96061.19
2024-05-09T16:13:19.701Z,96059.09
2024-05-09T16:15:50.421Z,96067.38
2024-05-09T16:18:18.236Z,96058.13
2024-05-09T16:20:50.112Z,96051.19
2024-05-09T16:23:20.590Z,96064.19
2024-05-09T16:25:51.492Z,96048.06
2024-05-09T16:28:23.028Z,96057.25
2024-05-09T16:30:52.035Z,96055.81
2024-05-09T16:33:23.876Z,96052.75
2024-05-09T16:35:51.647Z,96048.81
2024-05-09T16:38:21.965Z,96053.69
2024-05-09T16:40:52.027Z,96049.03
2024-05-09T16:43:22.092Z,96053.38
2024-05-09T16:45:49.525Z,96056.16
2024-05-09T16:48:20.057Z,96052.69
2024-05-09T16:50:47.525Z,96052.16
2024-05-09T16:53:17.446Z,96052.91
2024-05-09T16:55:44.944Z,96048.69
2024-05-09T16:58:17.772Z,96048.34
2024-05-09T17:00:45.481Z,96037.94
2024-05-09T17:03:16.904Z,96049.66
2024-05-09T17:05:46.884Z,96044.78
2024-05-09T17:08:19.694Z,96046.00
2024-05-09T17:10:48.894Z,96040.34
2024-05-09T17:13:22.679Z,96043.31
2024-05-09T17:15:50.543Z,96046.66
2024-05-09T17:18:21.114Z,96040.09
2024-05-09T17:20:50.364Z,96036.38
2024-05-09T17:23:20.364Z,96034.84
2024-05-09T17:25:47.766Z,96032.22
2024-05-09T17:28:18.050Z,96030.81
2024-05-09T17:30:48.602Z,96041.97
2024-05-09T17:33:19.918Z,96035.28
2024-05-09T17:35:50.361Z,96039.03
2024-05-09T17:38:22.946Z,96042.59
2024-05-09T17:40:50.906Z,96046.28
2024-05-09T17:43:21.101Z,96042.38
2024-05-09T17:45:51.221Z,96040.38
2024-05-09T17:48:21.862Z,96046.47
2024-05-09T17:50:51.346Z,96046.78
2024-05-09T17:53:21.566Z,96040.69
2024-05-09T17:55:48.901Z,96044.72
2024-05-09T17:58:19.271Z,96050.81
2024-05-09T18:00:46.974Z,96047.81
2024-05-09T18:03:20.020Z,96053.41
2024-05-09T18:05:47.749Z,96052.09
2024-05-09T18:08:17.916Z,96052.47
2024-05-09T18:10:45.435Z,96050.78
2024-05-09T18:13:16.241Z,96049.91
2024-05-09T18:15:44.947Z,96051.38
2024-05-09T18:18:15.784Z,96056.53
2024-05-09T18:20:46.535Z,96054.09
2024-05-09T18:23:18.807Z,96048.50
2024-05-09T18:25:47.774Z,96056.19
2024-05-09T18:28:18.309Z,96057.47
2024-05-09T18:30:45.819Z,96055.72
2024-05-09T18:33:16.385Z,96058.00
2024-05-09T18:35:46.602Z,96053.66
2024-05-09T18:38:17.687Z,96058.41
2024-05-09T18:40:48.302Z,96059.75
2024-05-09T18:43:26.192Z,96060.34
2024-05-09T18:45:58.687Z,96060.03
2024-05-09T18:48:28.851Z,96067.44
2024-05-09T18:50:58.889Z,96061.22
2024-05-09T18:53:28.869Z,96068.38
2024-05-09T18:55:56.177Z,96072.75
2024-05-09T18:58:25.837Z,96066.44
2024-05-09T19:00:55.486Z,96074.22
2024-05-09T19:03:26.636Z,96079.03
2024-05-09T19:05:54.264Z,96077.34
2024-05-09T19:08:27.212Z,96084.94
2024-05-09T19:10:54.749Z,96080.28
2024-05-09T19:13:25.164Z,96085.69
2024-05-09T19:15:52.731Z,96084.84
2024-05-09T19:18:22.772Z,96088.69
2024-05-09T19:20:50.628Z,96065.28
2024-05-09T19:23:20.578Z,96095.13
2024-05-09T19:25:50.810Z,96101.31
2024-05-09T19:28:20.922Z,96086.53
2024-05-09T19:30:48.399Z,96102.50
2024-05-09T19:33:18.420Z,96106.47
2024-05-09T19:35:45.804Z,96107.50
2024-05-09T19:38:15.769Z,96114.09
2024-05-09T19:40:43.155Z,96103.44
2024-05-09T19:43:16.140Z,96105.84
2024-05-09T19:45:43.790Z,96107.16
2024-05-09T19:48:14.016Z,96106.41
2024-05-09T19:50:44.247Z,96101.94
2024-05-09T19:53:15.285Z,96109.34
2024-05-09T19:55:43.426Z,96110.66
2024-05-09T19:58:16.086Z,96112.53
2024-05-09T20:00:44.597Z,96109.69
2024-05-09T20:03:16.226Z,96094.94
2024-05-09T20:05:46.309Z,96109.28
2024-05-09T20:08:17.165Z,96113.81
2024-05-09T20:10:44.629Z,96117.72
2024-05-09T20:13:17.571Z,96125.69
2024-05-09T20:15:45.042Z,96114.03
2024-05-09T20:18:15.223Z,96114.88
2024-05-09T20:20:44.648Z,96117.78
2024-05-09T20:23:15.543Z,96115.34
2024-05-09T20:25:43.308Z,96120.44
2024-05-09T20:28:13.573Z,96121.47
2024-05-09T20:30:43.681Z,96119.03
2024-05-09T20:33:14.260Z,96122.94
2024-05-09T20:35:41.677Z,96120.28
2024-05-09T20:38:11.317Z,96127.03
2024-05-09T20:40:39.765Z,96123.75
2024-05-09T20:43:11.567Z,96116.59
2024-05-09T20:45:40.035Z,96121.50
2024-05-09T20:48:13.771Z,96115.56
2024-05-09T20:50:42.747Z,96120.09
2024-05-09T20:53:15.118Z,96112.09
2024-05-09T20:55:43.374Z,96122.53
2024-05-09T20:58:14.108Z,96110.06
2024-05-09T21:00:44.507Z,96110.25
2024-05-09T21:03:18.904Z,96113.09
2024-05-09T21:05:47.393Z,96112.28
2024-05-09T21:08:18.148Z,96107.41
2024-05-09T21:10:45.583Z,96109.19
2024-05-09T21:13:15.510Z,96117.56
2024-05-09T21:15:45.676Z,96110.63
2024-05-09T21:18:15.705Z,96107.16
2024-05-09T21:20:45.859Z,96112.84
2024-05-09T21:23:13.173Z,96105.88
2024-05-09T21:25:43.291Z,96105.44
2024-05-09T21:28:10.650Z,96105.88
2024-05-09T21:30:42.854Z,96106.88
2024-05-09T21:33:13.399Z,96092.34
2024-05-09T21:35:47.291Z,96103.38
2024-05-09T21:38:16.256Z,96102.97
2024-05-09T21:40:46.679Z,96091.28
2024-05-09T21:43:14.507Z,96103.31
2024-05-09T21:45:44.875Z,96096.59
2024-05-09T21:48:13.742Z,96101.28
2024-05-09T21:50:46.331Z,96100.84
2024-05-09T21:53:14.802Z,96099.38
2024-05-09T21:55:45.074Z,96102.41
2024-05-09T21:58:12.883Z,96097.09
2024-05-09T22:00:45.674Z,96101.16
2024-05-09T22:03:13.378Z,96105.28
2024-05-09T22:05:45.013Z,96106.06
2024-05-09T22:08:15.454Z,96104.59
2024-05-09T22:10:46.252Z,96097.66
2024-05-09T22:13:15.646Z,96108.88
2024-05-09T22:15:45.830Z,96103.31
2024-05-09T22:18:13.349Z,96101.66
2024-05-09T22:20:46.339Z,96096.31
2024-05-09T22:23:16.736Z,96097.47
2024-05-09T22:25:46.666Z,96103.00
2024-05-09T22:28:15.740Z,96087.25
2024-05-09T22:30:47.173Z,96095.03
2024-05-09T22:33:15.364Z,96097.97
2024-05-09T22:35:45.643Z,96094.69
2024-05-09T22:38:12.981Z,96100.41
2024-05-09T22:40:48.834Z,96100.44
2024-05-09T22:43:19.401Z,96094.69
2024-05-09T22:45:50.045Z,96099.59
2024-05-09T22:48:18.150Z,96099.16
2024-05-09T22:50:48.562Z,96098.06
2024-05-09T22:53:16.064Z,96099.28
2024-05-09T22:55:48.303Z,96092.09
2024-05-09T22:58:15.749Z,96093.19
2024-05-09T23:00:45.523Z,96092.50
2024-05-09T23:03:15.707Z,96094.88
2024-05-09T23:05:45.789Z,96085.69
2024-05-09T23:08:13.253Z,96089.53
2024-05-09T23:10:42.966Z,96088.72
2024-05-09T23:13:13.337Z,96081.59
2024-05-09T23:15:43.427Z,96085.44
2024-05-09T23:18:11.315Z,96087.41
2024-05-09T23:20:41.269Z,96076.13
2024-05-09T23:23:10.894Z,96073.69
2024-05-09T23:25:42.188Z,96074.19
2024-05-09T23:28:10.000Z,96063.84
2024-05-09T23:30:42.806Z,96074.22
2024-05-09T23:33:11.575Z,96061.97
2024-05-09T23:35:41.783Z,96060.75
2024-05-09T23:38:09.072Z,96065.38
2024-05-09T23:40:41.124Z,96061.59
2024-05-09T23:43:10.048Z,96053.75
2024-05-09T23:45:43.461Z,96052.38
2024-05-09T23:48:11.732Z,96056.50
2024-05-09T23:50:42.019Z,96053.78
2024-05-09T23:53:10.519Z,96049.94
2024-05-09T23:55:41.110Z,96053.59
2024-05-09T23:58:08.924Z,96054.41
